Terminal Aerodrome Forecast
Issued by NWS

Home | Current Version | Previous Version | Graphics & Text | Print | Product List | Glossary On
Versions: 1 2 3 4 5 6 7 8 9 10 11 12 13 14 15
000
FTUS43 KMPX 281100
TAFRWF
TAF
KRWF 281132Z 2812/2912 27018G25KT P6SM BKN025 OVC040
     FM281600 28020G27KT P6SM SCT025 OVC040
     FM290000 30015G21KT P6SM BKN050
     FM290600 30010KT P6SM BKN100=

USA.gov is the U.S. government's official web portal to all federal, state and local government web resources and services.